sensor_id;sensor_type;location;lat;lon;timestamp;P1;durP1;ratioP1;P2;durP2;ratioP2
3801;SDS011;1916;51.798;12.246;2022-07-22T00:00:57;4.63;;;3.73;;
3801;SDS011;1916;51.798;12.246;2022-07-22T00:02:59;5.00;;;4.50;;
3801;SDS011;1916;51.798;12.246;2022-07-22T00:05:02;5.73;;;4.03;;
3801;SDS011;1916;51.798;12.246;2022-07-22T00:07:05;6.33;;;4.50;;
3801;SDS011;1916;51.798;12.246;2022-07-22T00:09:07;4.63;;;3.90;;
3801;SDS011;1916;51.798;12.246;2022-07-22T00:11:09;4.00;;;3.60;;
3801;SDS011;1916;51.798;12.246;2022-07-22T00:13:11;6.33;;;4.60;;
3801;SDS011;1916;51.798;12.246;2022-07-22T00:15:14;4.60;;;4.20;;
3801;SDS011;1916;51.798;12.246;2022-07-22T00:17:16;6.10;;;3.90;;
3801;SDS011;1916;51.798;12.246;2022-07-22T00:19:18;4.40;;;4.00;;
3801;SDS011;1916;51.798;12.246;2022-07-22T00:21:20;6.03;;;4.00;;
3801;SDS011;1916;51.798;12.246;2022-07-22T00:23:22;5.60;;;4.60;;
3801;SDS011;1916;51.798;12.246;2022-07-22T00:25:24;6.07;;;4.70;;
3801;SDS011;1916;51.798;12.246;2022-07-22T00:27:26;4.20;;;3.73;;
3801;SDS011;1916;51.798;12.246;2022-07-22T00:29:28;7.43;;;5.10;;
3801;SDS011;1916;51.798;12.246;2022-07-22T00:31:31;8.13;;;4.30;;
3801;SDS011;1916;51.798;12.246;2022-07-22T00:33:33;6.90;;;4.53;;
3801;SDS011;1916;51.798;12.246;2022-07-22T00:35:36;5.40;;;4.53;;
3801;SDS011;1916;51.798;12.246;2022-07-22T00:37:44;5.73;;;4.40;;
3801;SDS011;1916;51.798;12.246;2022-07-22T00:39:47;4.70;;;4.30;;
3801;SDS011;1916;51.798;12.246;2022-07-22T00:41:50;5.00;;;4.33;;
3801;SDS011;1916;51.798;12.246;2022-07-22T00:46:00;5.20;;;4.70;;
3801;SDS011;1916;51.798;12.246;2022-07-22T00:48:03;4.83;;;4.43;;
3801;SDS011;1916;51.798;12.246;2022-07-22T00:50:06;4.63;;;4.23;;
3801;SDS011;1916;51.798;12.246;2022-07-22T00:52:09;7.27;;;4.40;;
3801;SDS011;1916;51.798;12.246;2022-07-22T00:54:11;4.90;;;4.47;;
3801;SDS011;1916;51.798;12.246;2022-07-22T00:56:14;5.13;;;4.70;;
3801;SDS011;1916;51.798;12.246;2022-07-22T00:58:17;6.73;;;4.63;;
3801;SDS011;1916;51.798;12.246;2022-07-22T01:00:22;7.10;;;4.63;;
3801;SDS011;1916;51.798;12.246;2022-07-22T01:02:25;5.30;;;4.80;;
3801;SDS011;1916;51.798;12.246;2022-07-22T01:04:27;6.10;;;4.60;;
3801;SDS011;1916;51.798;12.246;2022-07-22T01:06:30;5.83;;;4.40;;
3801;SDS011;1916;51.798;12.246;2022-07-22T01:08:32;5.27;;;4.57;;
3801;SDS011;1916;51.798;12.246;2022-07-22T01:10:35;5.83;;;4.70;;
3801;SDS011;1916;51.798;12.246;2022-07-22T01:12:37;5.33;;;4.83;;
3801;SDS011;1916;51.798;12.246;2022-07-22T01:14:39;7.63;;;5.20;;
3801;SDS011;1916;51.798;12.246;2022-07-22T01:16:41;5.30;;;4.80;;
3801;SDS011;1916;51.798;12.246;2022-07-22T01:18:49;5.10;;;4.60;;
3801;SDS011;1916;51.798;12.246;2022-07-22T01:20:51;10.17;;;5.43;;
3801;SDS011;1916;51.798;12.246;2022-07-22T01:22:54;5.57;;;4.93;;
3801;SDS011;1916;51.798;12.246;2022-07-22T01:24:56;5.50;;;4.90;;
3801;SDS011;1916;51.798;12.246;2022-07-22T01:26:58;7.80;;;5.10;;
3801;SDS011;1916;51.798;12.246;2022-07-22T01:29:01;6.10;;;5.20;;
3801;SDS011;1916;51.798;12.246;2022-07-22T01:31:03;7.13;;;4.73;;
3801;SDS011;1916;51.798;12.246;2022-07-22T01:33:06;5.40;;;4.90;;
3801;SDS011;1916;51.798;12.246;2022-07-22T01:35:08;8.90;;;5.77;;
3801;SDS011;1916;51.798;12.246;2022-07-22T01:37:10;7.10;;;5.30;;
3801;SDS011;1916;51.798;12.246;2022-07-22T01:39:14;6.13;;;5.57;;
3801;SDS011;1916;51.798;12.246;2022-07-22T01:41:17;7.70;;;5.30;;
3801;SDS011;1916;51.798;12.246;2022-07-22T01:43:20;5.57;;;5.00;;
3801;SDS011;1916;51.798;12.246;2022-07-22T01:45:23;6.20;;;5.10;;
3801;SDS011;1916;51.798;12.246;2022-07-22T01:47:25;8.83;;;5.77;;
3801;SDS011;1916;51.798;12.246;2022-07-22T01:49:27;5.37;;;4.73;;
3801;SDS011;1916;51.798;12.246;2022-07-22T01:51:29;8.07;;;4.90;;
3801;SDS011;1916;51.798;12.246;2022-07-22T01:53:32;6.03;;;5.43;;
3801;SDS011;1916;51.798;12.246;2022-07-22T01:55:34;6.10;;;5.40;;
3801;SDS011;1916;51.798;12.246;2022-07-22T01:57:36;7.23;;;5.40;;
3801;SDS011;1916;51.798;12.246;2022-07-22T01:59:49;6.20;;;5.60;;
3801;SDS011;1916;51.798;12.246;2022-07-22T02:01:51;8.30;;;5.60;;
3801;SDS011;1916;51.798;12.246;2022-07-22T02:03:53;7.97;;;5.60;;
3801;SDS011;1916;51.798;12.246;2022-07-22T02:05:55;9.03;;;6.27;;
3801;SDS011;1916;51.798;12.246;2022-07-22T02:08:02;6.60;;;5.87;;
3801;SDS011;1916;51.798;12.246;2022-07-22T02:10:19;5.83;;;5.20;;
3801;SDS011;1916;51.798;12.246;2022-07-22T02:12:22;6.87;;;6.17;;
3801;SDS011;1916;51.798;12.246;2022-07-22T02:14:24;6.00;;;5.40;;
3801;SDS011;1916;51.798;12.246;2022-07-22T02:16:26;7.83;;;5.83;;
3801;SDS011;1916;51.798;12.246;2022-07-22T02:18:29;6.47;;;5.87;;
3801;SDS011;1916;51.798;12.246;2022-07-22T02:20:31;6.50;;;5.80;;
3801;SDS011;1916;51.798;12.246;2022-07-22T02:22:34;8.53;;;6.03;;
3801;SDS011;1916;51.798;12.246;2022-07-22T02:24:36;8.17;;;6.30;;
3801;SDS011;1916;51.798;12.246;2022-07-22T02:26:39;7.37;;;6.50;;
3801;SDS011;1916;51.798;12.246;2022-07-22T02:28:41;7.83;;;5.67;;
3801;SDS011;1916;51.798;12.246;2022-07-22T02:30:44;7.10;;;5.67;;
3801;SDS011;1916;51.798;12.246;2022-07-22T02:32:47;8.97;;;6.30;;
3801;SDS011;1916;51.798;12.246;2022-07-22T02:34:49;6.90;;;6.00;;
3801;SDS011;1916;51.798;12.246;2022-07-22T02:36:51;6.63;;;5.80;;
3801;SDS011;1916;51.798;12.246;2022-07-22T02:38:54;7.70;;;6.40;;
3801;SDS011;1916;51.798;12.246;2022-07-22T02:40:57;7.33;;;6.53;;
3801;SDS011;1916;51.798;12.246;2022-07-22T02:42:59;6.70;;;6.00;;
3801;SDS011;1916;51.798;12.246;2022-07-22T02:45:02;13.03;;;6.90;;
3801;SDS011;1916;51.798;12.246;2022-07-22T02:47:05;11.70;;;7.90;;
3801;SDS011;1916;51.798;12.246;2022-07-22T02:49:08;7.43;;;5.97;;
3801;SDS011;1916;51.798;12.246;2022-07-22T02:51:11;7.70;;;6.80;;
3801;SDS011;1916;51.798;12.246;2022-07-22T02:53:14;8.27;;;7.30;;
3801;SDS011;1916;51.798;12.246;2022-07-22T02:55:16;9.77;;;7.03;;
3801;SDS011;1916;51.798;12.246;2022-07-22T02:57:19;7.40;;;6.63;;
3801;SDS011;1916;51.798;12.246;2022-07-22T02:59:21;9.17;;;7.30;;
3801;SDS011;1916;51.798;12.246;2022-07-22T03:01:24;8.50;;;6.63;;
3801;SDS011;1916;51.798;12.246;2022-07-22T03:03:30;12.03;;;7.03;;
3801;SDS011;1916;51.798;12.246;2022-07-22T03:05:32;8.33;;;7.17;;
3801;SDS011;1916;51.798;12.246;2022-07-22T03:07:55;6.70;;;6.00;;
3801;SDS011;1916;51.798;12.246;2022-07-22T03:09:57;8.17;;;7.00;;
3801;SDS011;1916;51.798;12.246;2022-07-22T03:12:04;8.77;;;7.43;;
3801;SDS011;1916;51.798;12.246;2022-07-22T03:14:07;8.53;;;7.47;;
3801;SDS011;1916;51.798;12.246;2022-07-22T03:16:09;10.87;;;7.40;;
3801;SDS011;1916;51.798;12.246;2022-07-22T03:18:13;9.93;;;7.33;;
3801;SDS011;1916;51.798;12.246;2022-07-22T03:20:15;8.17;;;7.37;;
3801;SDS011;1916;51.798;12.246;2022-07-22T03:22:19;8.50;;;7.53;;
3801;SDS011;1916;51.798;12.246;2022-07-22T03:24:21;15.10;;;7.93;;
3801;SDS011;1916;51.798;12.246;2022-07-22T03:26:24;10.00;;;7.70;;
3801;SDS011;1916;51.798;12.246;2022-07-22T03:28:26;10.43;;;8.37;;
3801;SDS011;1916;51.798;12.246;2022-07-22T03:30:29;10.20;;;8.13;;
3801;SDS011;1916;51.798;12.246;2022-07-22T03:32:32;10.83;;;8.07;;
3801;SDS011;1916;51.798;12.246;2022-07-22T03:34:34;9.33;;;8.40;;
3801;SDS011;1916;51.798;12.246;2022-07-22T03:36:39;13.57;;;9.43;;
3801;SDS011;1916;51.798;12.246;2022-07-22T03:38:43;17.63;;;9.80;;
3801;SDS011;1916;51.798;12.246;2022-07-22T03:40:45;13.70;;;8.70;;
3801;SDS011;1916;51.798;12.246;2022-07-22T03:42:47;10.90;;;8.80;;
3801;SDS011;1916;51.798;12.246;2022-07-22T03:44:49;11.10;;;8.83;;
3801;SDS011;1916;51.798;12.246;2022-07-22T03:46:52;11.00;;;8.67;;
3801;SDS011;1916;51.798;12.246;2022-07-22T03:48:54;13.43;;;9.40;;
3801;SDS011;1916;51.798;12.246;2022-07-22T03:50:57;10.03;;;8.60;;
3801;SDS011;1916;51.798;12.246;2022-07-22T03:53:01;12.43;;;8.97;;
3801;SDS011;1916;51.798;12.246;2022-07-22T03:55:06;10.30;;;8.20;;
3801;SDS011;1916;51.798;12.246;2022-07-22T03:57:09;13.37;;;9.77;;
3801;SDS011;1916;51.798;12.246;2022-07-22T03:59:12;11.37;;;9.50;;
3801;SDS011;1916;51.798;12.246;2022-07-22T04:01:14;10.50;;;8.57;;
3801;SDS011;1916;51.798;12.246;2022-07-22T04:03:17;14.90;;;8.93;;
3801;SDS011;1916;51.798;12.246;2022-07-22T04:05:19;12.27;;;9.00;;
3801;SDS011;1916;51.798;12.246;2022-07-22T04:07:23;13.87;;;9.20;;
3801;SDS011;1916;51.798;12.246;2022-07-22T04:09:26;10.93;;;7.53;;
3801;SDS011;1916;51.798;12.246;2022-07-22T04:11:29;11.53;;;8.40;;
3801;SDS011;1916;51.798;12.246;2022-07-22T04:13:32;8.87;;;7.97;;
3801;SDS011;1916;51.798;12.246;2022-07-22T04:15:34;11.20;;;7.60;;
3801;SDS011;1916;51.798;12.246;2022-07-22T04:17:36;9.60;;;7.77;;
3801;SDS011;1916;51.798;12.246;2022-07-22T04:19:38;9.20;;;8.30;;
3801;SDS011;1916;51.798;12.246;2022-07-22T04:21:53;11.93;;;7.90;;
3801;SDS011;1916;51.798;12.246;2022-07-22T04:23:58;8.00;;;7.20;;
3801;SDS011;1916;51.798;12.246;2022-07-22T04:26:05;8.60;;;7.70;;
3801;SDS011;1916;51.798;12.246;2022-07-22T04:28:08;9.13;;;7.80;;
3801;SDS011;1916;51.798;12.246;2022-07-22T04:30:11;9.80;;;7.60;;
3801;SDS011;1916;51.798;12.246;2022-07-22T04:32:16;8.27;;;6.70;;
3801;SDS011;1916;51.798;12.246;2022-07-22T04:34:18;6.53;;;5.77;;
3801;SDS011;1916;51.798;12.246;2022-07-22T04:36:23;8.83;;;7.30;;
3801;SDS011;1916;51.798;12.246;2022-07-22T04:38:26;10.83;;;7.10;;
3801;SDS011;1916;51.798;12.246;2022-07-22T04:40:36;7.30;;;6.10;;
3801;SDS011;1916;51.798;12.246;2022-07-22T04:42:38;6.00;;;5.40;;
3801;SDS011;1916;51.798;12.246;2022-07-22T04:44:40;6.50;;;5.87;;
3801;SDS011;1916;51.798;12.246;2022-07-22T04:46:43;6.90;;;6.00;;
3801;SDS011;1916;51.798;12.246;2022-07-22T04:48:45;6.07;;;5.43;;
3801;SDS011;1916;51.798;12.246;2022-07-22T04:50:47;6.57;;;5.63;;
3801;SDS011;1916;51.798;12.246;2022-07-22T04:52:50;7.30;;;5.40;;
3801;SDS011;1916;51.798;12.246;2022-07-22T04:54:52;6.50;;;5.73;;
3801;SDS011;1916;51.798;12.246;2022-07-22T04:56:54;6.77;;;5.70;;
3801;SDS011;1916;51.798;12.246;2022-07-22T04:58:56;7.73;;;5.43;;
3801;SDS011;1916;51.798;12.246;2022-07-22T05:01:04;6.10;;;5.03;;
3801;SDS011;1916;51.798;12.246;2022-07-22T05:03:06;5.10;;;4.60;;
3801;SDS011;1916;51.798;12.246;2022-07-22T05:05:08;7.47;;;5.30;;
3801;SDS011;1916;51.798;12.246;2022-07-22T05:07:10;7.33;;;5.10;;
3801;SDS011;1916;51.798;12.246;2022-07-22T05:09:13;7.43;;;4.97;;
3801;SDS011;1916;51.798;12.246;2022-07-22T05:11:15;6.37;;;4.97;;
3801;SDS011;1916;51.798;12.246;2022-07-22T05:13:17;6.40;;;5.37;;
3801;SDS011;1916;51.798;12.246;2022-07-22T05:15:20;7.10;;;5.23;;
3801;SDS011;1916;51.798;12.246;2022-07-22T05:17:22;5.60;;;5.10;;
3801;SDS011;1916;51.798;12.246;2022-07-22T05:19:38;6.00;;;5.00;;
3801;SDS011;1916;51.798;12.246;2022-07-22T05:21:42;5.10;;;4.23;;
3801;SDS011;1916;51.798;12.246;2022-07-22T05:23:45;9.87;;;5.77;;
3801;SDS011;1916;51.798;12.246;2022-07-22T05:25:49;8.63;;;5.90;;
3801;SDS011;1916;51.798;12.246;2022-07-22T05:27:51;5.97;;;5.37;;
3801;SDS011;1916;51.798;12.246;2022-07-22T05:30:00;5.70;;;4.77;;
3801;SDS011;1916;51.798;12.246;2022-07-22T05:32:05;4.90;;;4.40;;
3801;SDS011;1916;51.798;12.246;2022-07-22T05:34:07;5.57;;;5.00;;
3801;SDS011;1916;51.798;12.246;2022-07-22T05:36:15;5.97;;;4.70;;
3801;SDS011;1916;51.798;12.246;2022-07-22T05:38:21;5.40;;;4.70;;
3801;SDS011;1916;51.798;12.246;2022-07-22T05:40:23;4.70;;;4.30;;
3801;SDS011;1916;51.798;12.246;2022-07-22T05:42:26;10.00;;;4.37;;
3801;SDS011;1916;51.798;12.246;2022-07-22T05:44:28;5.80;;;4.43;;
3801;SDS011;1916;51.798;12.246;2022-07-22T05:46:30;4.97;;;4.23;;
3801;SDS011;1916;51.798;12.246;2022-07-22T05:48:33;7.47;;;4.20;;
3801;SDS011;1916;51.798;12.246;2022-07-22T05:50:36;5.10;;;3.90;;
3801;SDS011;1916;51.798;12.246;2022-07-22T05:52:38;4.70;;;4.20;;
3801;SDS011;1916;51.798;12.246;2022-07-22T05:54:40;5.10;;;4.00;;
3801;SDS011;1916;51.798;12.246;2022-07-22T05:56:43;4.57;;;3.13;;
3801;SDS011;1916;51.798;12.246;2022-07-22T05:58:45;4.73;;;3.90;;
3801;SDS011;1916;51.798;12.246;2022-07-22T06:00:47;4.00;;;3.60;;
3801;SDS011;1916;51.798;12.246;2022-07-22T06:02:50;4.00;;;3.40;;
3801;SDS011;1916;51.798;12.246;2022-07-22T06:04:54;4.47;;;3.37;;
3801;SDS011;1916;51.798;12.246;2022-07-22T06:06:57;4.63;;;3.53;;
3801;SDS011;1916;51.798;12.246;2022-07-22T06:08:59;4.33;;;3.30;;
3801;SDS011;1916;51.798;12.246;2022-07-22T06:11:02;3.53;;;3.20;;
3801;SDS011;1916;51.798;12.246;2022-07-22T06:13:04;3.70;;;2.77;;
3801;SDS011;1916;51.798;12.246;2022-07-22T06:15:07;8.80;;;3.33;;
3801;SDS011;1916;51.798;12.246;2022-07-22T06:17:10;3.50;;;3.20;;
3801;SDS011;1916;51.798;12.246;2022-07-22T06:19:12;3.80;;;3.07;;
3801;SDS011;1916;51.798;12.246;2022-07-22T06:21:14;3.33;;;3.00;;
3801;SDS011;1916;51.798;12.246;2022-07-22T06:23:16;3.07;;;2.80;;
3801;SDS011;1916;51.798;12.246;2022-07-22T06:25:18;3.60;;;2.87;;
3801;SDS011;1916;51.798;12.246;2022-07-22T06:27:42;4.50;;;3.43;;
3801;SDS011;1916;51.798;12.246;2022-07-22T06:29:44;3.97;;;2.60;;
3801;SDS011;1916;51.798;12.246;2022-07-22T06:31:47;4.17;;;3.10;;
3801;SDS011;1916;51.798;12.246;2022-07-22T06:33:49;3.90;;;3.00;;
3801;SDS011;1916;51.798;12.246;2022-07-22T06:35:51;2.80;;;2.60;;
3801;SDS011;1916;51.798;12.246;2022-07-22T06:37:53;4.03;;;3.10;;
3801;SDS011;1916;51.798;12.246;2022-07-22T06:40:17;3.80;;;3.17;;
3801;SDS011;1916;51.798;12.246;2022-07-22T06:42:33;8.77;;;3.00;;
3801;SDS011;1916;51.798;12.246;2022-07-22T06:45:02;3.07;;;2.37;;
3801;SDS011;1916;51.798;12.246;2022-07-22T06:47:13;4.20;;;3.03;;
3801;SDS011;1916;51.798;12.246;2022-07-22T06:49:16;3.37;;;2.90;;
3801;SDS011;1916;51.798;12.246;2022-07-22T06:51:20;3.30;;;3.00;;
3801;SDS011;1916;51.798;12.246;2022-07-22T06:53:28;3.00;;;2.47;;
3801;SDS011;1916;51.798;12.246;2022-07-22T06:55:30;2.73;;;2.40;;
3801;SDS011;1916;51.798;12.246;2022-07-22T06:57:42;7.63;;;3.07;;
3801;SDS011;1916;51.798;12.246;2022-07-22T06:59:45;3.80;;;2.80;;
3801;SDS011;1916;51.798;12.246;2022-07-22T07:01:47;4.40;;;2.93;;
3801;SDS011;1916;51.798;12.246;2022-07-22T07:03:51;3.10;;;2.80;;
3801;SDS011;1916;51.798;12.246;2022-07-22T07:05:53;3.20;;;2.50;;
3801;SDS011;1916;51.798;12.246;2022-07-22T07:07:56;2.87;;;2.57;;
3801;SDS011;1916;51.798;12.246;2022-07-22T07:09:59;3.80;;;2.80;;
3801;SDS011;1916;51.798;12.246;2022-07-22T07:12:17;3.10;;;2.80;;
3801;SDS011;1916;51.798;12.246;2022-07-22T07:14:52;2.33;;;2.13;;
3801;SDS011;1916;51.798;12.246;2022-07-22T07:17:14;2.77;;;2.40;;
3801;SDS011;1916;51.798;12.246;2022-07-22T07:19:17;3.33;;;3.03;;
3801;SDS011;1916;51.798;12.246;2022-07-22T07:21:21;2.67;;;2.47;;
3801;SDS011;1916;51.798;12.246;2022-07-22T07:23:23;2.80;;;2.60;;
3801;SDS011;1916;51.798;12.246;2022-07-22T07:25:25;2.30;;;2.10;;
3801;SDS011;1916;51.798;12.246;2022-07-22T07:27:29;2.40;;;2.20;;
3801;SDS011;1916;51.798;12.246;2022-07-22T07:29:31;3.33;;;2.47;;
3801;SDS011;1916;51.798;12.246;2022-07-22T07:31:34;3.13;;;2.70;;
3801;SDS011;1916;51.798;12.246;2022-07-22T07:33:43;2.57;;;2.37;;
3801;SDS011;1916;51.798;12.246;2022-07-22T07:35:45;2.93;;;2.47;;
3801;SDS011;1916;51.798;12.246;2022-07-22T07:37:52;2.80;;;2.60;;
3801;SDS011;1916;51.798;12.246;2022-07-22T07:39:55;6.20;;;2.50;;
3801;SDS011;1916;51.798;12.246;2022-07-22T07:41:58;4.00;;;2.70;;
3801;SDS011;1916;51.798;12.246;2022-07-22T07:44:00;4.07;;;3.03;;
3801;SDS011;1916;51.798;12.246;2022-07-22T07:46:02;4.27;;;3.07;;
3801;SDS011;1916;51.798;12.246;2022-07-22T07:48:05;3.90;;;3.60;;
3801;SDS011;1916;51.798;12.246;2022-07-22T07:50:08;5.33;;;3.77;;
3801;SDS011;1916;51.798;12.246;2022-07-22T07:52:11;3.83;;;3.53;;
3801;SDS011;1916;51.798;12.246;2022-07-22T07:54:15;5.47;;;4.00;;
3801;SDS011;1916;51.798;12.246;2022-07-22T07:56:19;3.93;;;3.23;;
3801;SDS011;1916;51.798;12.246;2022-07-22T07:58:22;5.97;;;3.80;;
3801;SDS011;1916;51.798;12.246;2022-07-22T08:00:24;3.50;;;3.20;;
3801;SDS011;1916;51.798;12.246;2022-07-22T08:02:30;4.77;;;3.77;;
3801;SDS011;1916;51.798;12.246;2022-07-22T08:04:34;4.00;;;3.60;;
3801;SDS011;1916;51.798;12.246;2022-07-22T08:06:49;5.93;;;3.70;;
3801;SDS011;1916;51.798;12.246;2022-07-22T08:08:52;6.00;;;3.87;;
3801;SDS011;1916;51.798;12.246;2022-07-22T08:11:04;4.03;;;3.03;;
3801;SDS011;1916;51.798;12.246;2022-07-22T08:13:06;3.40;;;3.10;;
3801;SDS011;1916;51.798;12.246;2022-07-22T08:15:32;3.13;;;2.20;;
3801;SDS011;1916;51.798;12.246;2022-07-22T08:17:40;3.07;;;2.30;;
3801;SDS011;1916;51.798;12.246;2022-07-22T08:19:43;2.50;;;2.17;;
3801;SDS011;1916;51.798;12.246;2022-07-22T08:21:45;2.30;;;1.97;;
3801;SDS011;1916;51.798;12.246;2022-07-22T08:23:58;6.20;;;2.67;;
3801;SDS011;1916;51.798;12.246;2022-07-22T08:26:01;2.20;;;2.00;;
3801;SDS011;1916;51.798;12.246;2022-07-22T08:28:03;1.90;;;1.70;;
3801;SDS011;1916;51.798;12.246;2022-07-22T08:30:06;2.00;;;1.90;;
3801;SDS011;1916;51.798;12.246;2022-07-22T08:32:08;4.90;;;1.80;;
3801;SDS011;1916;51.798;12.246;2022-07-22T08:34:11;1.70;;;1.60;;
3801;SDS011;1916;51.798;12.246;2022-07-22T08:36:13;1.80;;;1.70;;
3801;SDS011;1916;51.798;12.246;2022-07-22T08:38:15;3.43;;;1.77;;
3801;SDS011;1916;51.798;12.246;2022-07-22T08:40:18;2.00;;;1.80;;
3801;SDS011;1916;51.798;12.246;2022-07-22T08:42:22;2.13;;;1.70;;
3801;SDS011;1916;51.798;12.246;2022-07-22T08:44:25;2.23;;;2.03;;
3801;SDS011;1916;51.798;12.246;2022-07-22T08:46:31;2.77;;;2.33;;
3801;SDS011;1916;51.798;12.246;2022-07-22T08:49:00;2.43;;;2.20;;
3801;SDS011;1916;51.798;12.246;2022-07-22T08:51:19;3.07;;;1.97;;
3801;SDS011;1916;51.798;12.246;2022-07-22T08:53:30;2.67;;;1.80;;
3801;SDS011;1916;51.798;12.246;2022-07-22T08:55:42;2.80;;;2.40;;
3801;SDS011;1916;51.798;12.246;2022-07-22T08:57:48;2.50;;;2.30;;
3801;SDS011;1916;51.798;12.246;2022-07-22T08:59:51;2.50;;;2.30;;
3801;SDS011;1916;51.798;12.246;2022-07-22T09:02:02;1.80;;;1.63;;
3801;SDS011;1916;51.798;12.246;2022-07-22T09:04:16;5.87;;;2.20;;
3801;SDS011;1916;51.798;12.246;2022-07-22T09:06:19;2.00;;;1.80;;
3801;SDS011;1916;51.798;12.246;2022-07-22T09:08:22;7.33;;;2.03;;
3801;SDS011;1916;51.798;12.246;2022-07-22T09:10:34;3.97;;;1.97;;
3801;SDS011;1916;51.798;12.246;2022-07-22T09:12:53;2.20;;;1.93;;
3801;SDS011;1916;51.798;12.246;2022-07-22T09:15:27;2.63;;;2.00;;
3801;SDS011;1916;51.798;12.246;2022-07-22T09:17:53;2.00;;;1.80;;
3801;SDS011;1916;51.798;12.246;2022-07-22T09:20:15;2.37;;;2.17;;
3801;SDS011;1916;51.798;12.246;2022-07-22T09:22:47;4.10;;;2.10;;
3801;SDS011;1916;51.798;12.246;2022-07-22T09:24:54;2.10;;;1.90;;
3801;SDS011;1916;51.798;12.246;2022-07-22T09:27:24;2.43;;;2.13;;
3801;SDS011;1916;51.798;12.246;2022-07-22T09:30:01;5.53;;;2.30;;
3801;SDS011;1916;51.798;12.246;2022-07-22T09:32:09;2.27;;;2.07;;
3801;SDS011;1916;51.798;12.246;2022-07-22T09:34:32;2.20;;;2.00;;
3801;SDS011;1916;51.798;12.246;2022-07-22T09:36:57;2.67;;;2.47;;
3801;SDS011;1916;51.798;12.246;2022-07-22T09:39:10;3.20;;;2.83;;
3801;SDS011;1916;51.798;12.246;2022-07-22T09:41:30;2.97;;;2.73;;
3801;SDS011;1916;51.798;12.246;2022-07-22T09:43:34;3.43;;;3.13;;
3801;SDS011;1916;51.798;12.246;2022-07-22T09:45:58;3.60;;;3.13;;
3801;SDS011;1916;51.798;12.246;2022-07-22T09:48:20;3.03;;;2.50;;
3801;SDS011;1916;51.798;12.246;2022-07-22T09:50:41;10.83;;;2.67;;
3801;SDS011;1916;51.798;12.246;2022-07-22T09:52:47;3.80;;;3.30;;
3801;SDS011;1916;51.798;12.246;2022-07-22T09:54:59;3.40;;;3.10;;
3801;SDS011;1916;51.798;12.246;2022-07-22T09:57:02;3.80;;;2.80;;
3801;SDS011;1916;51.798;12.246;2022-07-22T09:59:04;3.63;;;3.33;;
3801;SDS011;1916;51.798;12.246;2022-07-22T10:01:19;3.53;;;3.23;;
3801;SDS011;1916;51.798;12.246;2022-07-22T10:03:26;3.03;;;2.73;;
3801;SDS011;1916;51.798;12.246;2022-07-22T10:05:32;4.47;;;3.90;;
3801;SDS011;1916;51.798;12.246;2022-07-22T10:07:35;3.73;;;3.23;;
3801;SDS011;1916;51.798;12.246;2022-07-22T10:09:38;3.80;;;3.00;;
3801;SDS011;1916;51.798;12.246;2022-07-22T10:11:40;3.00;;;2.80;;
3801;SDS011;1916;51.798;12.246;2022-07-22T10:13:48;4.20;;;3.80;;
3801;SDS011;1916;51.798;12.246;2022-07-22T10:15:51;4.07;;;3.67;;
3801;SDS011;1916;51.798;12.246;2022-07-22T10:17:58;7.90;;;4.53;;
3801;SDS011;1916;51.798;12.246;2022-07-22T10:20:06;4.47;;;3.57;;
3801;SDS011;1916;51.798;12.246;2022-07-22T10:25:00;2.77;;;2.57;;
3801;SDS011;1916;51.798;12.246;2022-07-22T10:27:05;2.70;;;2.50;;
3801;SDS011;1916;51.798;12.246;2022-07-22T10:29:26;3.50;;;2.80;;
3801;SDS011;1916;51.798;12.246;2022-07-22T10:31:29;3.00;;;2.70;;
3801;SDS011;1916;51.798;12.246;2022-07-22T10:33:31;2.90;;;2.70;;
3801;SDS011;1916;51.798;12.246;2022-07-22T10:35:37;3.23;;;2.87;;
3801;SDS011;1916;51.798;12.246;2022-07-22T10:37:47;3.10;;;2.67;;
3801;SDS011;1916;51.798;12.246;2022-07-22T10:45:00;2.93;;;2.70;;
3801;SDS011;1916;51.798;12.246;2022-07-22T10:47:03;3.57;;;3.27;;
3801;SDS011;1916;51.798;12.246;2022-07-22T10:49:06;2.93;;;2.73;;
3801;SDS011;1916;51.798;12.246;2022-07-22T10:51:10;3.20;;;2.90;;
3801;SDS011;1916;51.798;12.246;2022-07-22T10:53:46;2.80;;;2.60;;
3801;SDS011;1916;51.798;12.246;2022-07-22T10:56:00;4.03;;;3.70;;
3801;SDS011;1916;51.798;12.246;2022-07-22T11:00:33;5.60;;;5.10;;
3801;SDS011;1916;51.798;12.246;2022-07-22T11:02:37;4.77;;;4.37;;
3801;SDS011;1916;51.798;12.246;2022-07-22T11:04:39;4.97;;;4.43;;
3801;SDS011;1916;51.798;12.246;2022-07-22T11:06:42;4.63;;;4.23;;
3801;SDS011;1916;51.798;12.246;2022-07-22T11:08:45;4.40;;;4.00;;
3801;SDS011;1916;51.798;12.246;2022-07-22T11:10:49;4.23;;;3.93;;
3801;SDS011;1916;51.798;12.246;2022-07-22T11:12:51;4.73;;;4.33;;
3801;SDS011;1916;51.798;12.246;2022-07-22T11:14:54;4.70;;;4.30;;
3801;SDS011;1916;51.798;12.246;2022-07-22T11:17:09;4.17;;;3.83;;
3801;SDS011;1916;51.798;12.246;2022-07-22T11:19:12;3.90;;;3.60;;
3801;SDS011;1916;51.798;12.246;2022-07-22T11:21:15;4.30;;;4.00;;
3801;SDS011;1916;51.798;12.246;2022-07-22T11:23:25;4.50;;;4.10;;
3801;SDS011;1916;51.798;12.246;2022-07-22T11:25:27;4.90;;;4.50;;
3801;SDS011;1916;51.798;12.246;2022-07-22T11:27:29;4.93;;;4.43;;
3801;SDS011;1916;51.798;12.246;2022-07-22T11:29:33;5.33;;;3.87;;
3801;SDS011;1916;51.798;12.246;2022-07-22T11:31:41;3.90;;;3.60;;
3801;SDS011;1916;51.798;12.246;2022-07-22T11:33:44;3.70;;;3.40;;
3801;SDS011;1916;51.798;12.246;2022-07-22T11:36:06;4.27;;;3.97;;
3801;SDS011;1916;51.798;12.246;2022-07-22T11:38:11;3.90;;;3.60;;
3801;SDS011;1916;51.798;12.246;2022-07-22T11:40:13;4.10;;;3.70;;
3801;SDS011;1916;51.798;12.246;2022-07-22T11:42:15;4.37;;;3.97;;
3801;SDS011;1916;51.798;12.246;2022-07-22T11:44:21;3.60;;;3.30;;
3801;SDS011;1916;51.798;12.246;2022-07-22T11:46:28;4.23;;;3.93;;
3801;SDS011;1916;51.798;12.246;2022-07-22T11:48:37;4.77;;;3.60;;
3801;SDS011;1916;51.798;12.246;2022-07-22T11:50:39;4.30;;;3.80;;
3801;SDS011;1916;51.798;12.246;2022-07-22T11:52:51;4.97;;;4.27;;
3801;SDS011;1916;51.798;12.246;2022-07-22T11:54:53;4.50;;;4.10;;
3801;SDS011;1916;51.798;12.246;2022-07-22T11:56:56;4.17;;;3.77;;
3801;SDS011;1916;51.798;12.246;2022-07-22T11:58:58;4.43;;;4.03;;
3801;SDS011;1916;51.798;12.246;2022-07-22T12:01:04;7.40;;;3.83;;
3801;SDS011;1916;51.798;12.246;2022-07-22T12:03:08;5.63;;;4.50;;
3801;SDS011;1916;51.798;12.246;2022-07-22T12:05:11;4.27;;;3.97;;
3801;SDS011;1916;51.798;12.246;2022-07-22T12:07:33;4.20;;;3.87;;
3801;SDS011;1916;51.798;12.246;2022-07-22T12:09:36;4.70;;;4.30;;
3801;SDS011;1916;51.798;12.246;2022-07-22T12:11:39;4.53;;;4.17;;
3801;SDS011;1916;51.798;12.246;2022-07-22T12:13:43;7.37;;;3.93;;
3801;SDS011;1916;51.798;12.246;2022-07-22T12:15:49;4.53;;;4.13;;
3801;SDS011;1916;51.798;12.246;2022-07-22T12:17:52;4.23;;;3.93;;
3801;SDS011;1916;51.798;12.246;2022-07-22T12:19:54;4.27;;;3.87;;
3801;SDS011;1916;51.798;12.246;2022-07-22T12:21:58;4.00;;;3.70;;
3801;SDS011;1916;51.798;12.246;2022-07-22T12:24:06;5.60;;;4.00;;
3801;SDS011;1916;51.798;12.246;2022-07-22T12:26:09;4.60;;;4.20;;
3801;SDS011;1916;51.798;12.246;2022-07-22T12:28:11;5.80;;;3.83;;
3801;SDS011;1916;51.798;12.246;2022-07-22T12:30:13;5.00;;;4.13;;
3801;SDS011;1916;51.798;12.246;2022-07-22T12:34:40;4.17;;;3.87;;
3801;SDS011;1916;51.798;12.246;2022-07-22T12:36:45;5.00;;;3.67;;
3801;SDS011;1916;51.798;12.246;2022-07-22T12:38:48;4.30;;;3.87;;
3801;SDS011;1916;51.798;12.246;2022-07-22T12:40:50;4.70;;;4.30;;
3801;SDS011;1916;51.798;12.246;2022-07-22T12:42:59;3.90;;;3.60;;
3801;SDS011;1916;51.798;12.246;2022-07-22T12:45:10;5.00;;;3.60;;
3801;SDS011;1916;51.798;12.246;2022-07-22T12:47:14;4.30;;;4.00;;
3801;SDS011;1916;51.798;12.246;2022-07-22T12:49:17;5.00;;;4.60;;
3801;SDS011;1916;51.798;12.246;2022-07-22T12:51:20;4.93;;;4.50;;
3801;SDS011;1916;51.798;12.246;2022-07-22T12:53:23;4.40;;;4.00;;
3801;SDS011;1916;51.798;12.246;2022-07-22T12:55:26;4.00;;;3.70;;
3801;SDS011;1916;51.798;12.246;2022-07-22T12:57:28;4.13;;;3.83;;
3801;SDS011;1916;51.798;12.246;2022-07-22T12:59:30;3.97;;;3.67;;
3801;SDS011;1916;51.798;12.246;2022-07-22T13:01:33;4.23;;;3.93;;